Palencia — E5U3004 — position and weather

sailwx.info

Track history (hours):
 
Tides and Currents Weather Stations Pressure Air Temp Water Temp Dewpoint Dewpoint Depression Visibility Wind Speed Wind Dir Waves Ship Positions

Palencia

Last reported at 2017-Nov-10 03:56 UTC. Time now 2017-Dec-11 05:55 UTC.
Position N 36°59' E 013°38'.
Warning: this ship's position is 31 days out of date.

Length 122 m; draft 7.6 m.

Type: Cargo ship. MMSI: 518100059.

Date/timePositionNaut miles runAvg speedWind from/ knotsBaromVisibWave heightAir tempDewpointWater temp
2017-Nov-10 03:56N 36°59' E 013°38'612.1
2017-Nov-10 03:25N 36°54' E 013°44'512.3
2017-Nov-10 03:00N 36°51' E 013°48'610.9
2017-Nov-10 02:30N 36°48' E 013°54'611.5
2017-Nov-10 02:00N 36°48' E 014°01'611.6
2017-Nov-10 01:30N 36°47' E 014°08'611.9
2017-Nov-10 01:00N 36°45' E 014°15'611.6
2017-Nov-10 00:30N 36°43' E 014°22'611.7
2017-Nov-10 00:00N 36°41' E 014°29'611.7
2017-Nov-09 23:30N 36°39' E 014°35'611.8
2017-Nov-09 23:00N 36°37' E 014°42'811.7
2017-Nov-09 22:19N 36°36' E 014°52'611.7
2017-Nov-09 21:50N 36°35' E 014°59'411.7
2017-Nov-09 21:29N 36°35' E 015°04'  
2017-Nov-04 09:24N 36°22' E 014°37'615.1
2017-Nov-04 09:00N 36°19' E 014°31'715.0
2017-Nov-04 08:30N 36°16' E 014°22'714.9
2017-Nov-04 08:00N 36°12' E 014°14'714.6
2017-Nov-04 07:30N 36°09' E 014°06'714.4
2017-Nov-04 07:00N 36°04' E 013°59'714.7
2017-Nov-04 06:30N 35°60' E 013°52'814.7
2017-Nov-04 05:59N 35°55' E 013°45'2414.9
2017-Nov-04 04:21N 35°40' E 013°21'915.3
2017-Nov-04 03:46N 35°34' E 013°13'  
Track history (hours):
 
Tides and Currents Weather Stations Pressure Air Temp Water Temp Dewpoint Dewpoint Depression Visibility Wind Speed Wind Dir Waves Ship Positions

Palencia

Last reported at 2017-Nov-10 03:56 UTC. Time now 2017-Dec-11 05:55 UTC.
Position N 36°59' E 013°38'.
Warning: this ship's position is 31 days out of date.

Length 122 m; draft 7.6 m.

Type: Cargo ship. MMSI: 518100059.

Date/timePositionNaut miles runAvg speedWind from/ knotsBaromVisibWave heightAir tempDewpointWater temp
2017-Nov-10 03:56N 36°59' E 013°38'612.1
2017-Nov-10 03:25N 36°54' E 013°44'512.3
2017-Nov-10 03:00N 36°51' E 013°48'610.9
2017-Nov-10 02:30N 36°48' E 013°54'611.5
2017-Nov-10 02:00N 36°48' E 014°01'611.6
2017-Nov-10 01:30N 36°47' E 014°08'611.9
2017-Nov-10 01:00N 36°45' E 014°15'611.6
2017-Nov-10 00:30N 36°43' E 014°22'611.7
2017-Nov-10 00:00N 36°41' E 014°29'611.7
2017-Nov-09 23:30N 36°39' E 014°35'611.8
2017-Nov-09 23:00N 36°37' E 014°42'811.7
2017-Nov-09 22:19N 36°36' E 014°52'611.7
2017-Nov-09 21:50N 36°35' E 014°59'411.7
2017-Nov-09 21:29N 36°35' E 015°04'  
2017-Nov-04 09:24N 36°22' E 014°37'615.1
2017-Nov-04 09:00N 36°19' E 014°31'715.0
2017-Nov-04 08:30N 36°16' E 014°22'714.9
2017-Nov-04 08:00N 36°12' E 014°14'714.6
2017-Nov-04 07:30N 36°09' E 014°06'714.4
2017-Nov-04 07:00N 36°04' E 013°59'714.7
2017-Nov-04 06:30N 35°60' E 013°52'814.7
2017-Nov-04 05:59N 35°55' E 013°45'2414.9
2017-Nov-04 04:21N 35°40' E 013°21'915.3
2017-Nov-04 03:46N 35°34' E 013°13'  

Dump ship's entire track history